sensor_id;sensor_type;location;lat;lon;timestamp;temperature;humidity
25342;DHT22;13298;48.792;9.154;2022-10-30T00:00:35;15.10;99.90
25342;DHT22;13298;48.792;9.154;2022-10-30T00:03:01;15.10;99.90
25342;DHT22;13298;48.792;9.154;2022-10-30T00:05:26;15.10;99.90
25342;DHT22;13298;48.792;9.154;2022-10-30T00:07:56;15.10;99.90
25342;DHT22;13298;48.792;9.154;2022-10-30T00:10:22;15.10;99.90
25342;DHT22;13298;48.792;9.154;2022-10-30T00:12:48;15.10;99.90
25342;DHT22;13298;48.792;9.154;2022-10-30T00:15:14;15.10;99.90
25342;DHT22;13298;48.792;9.154;2022-10-30T00:17:39;15.10;99.90
25342;DHT22;13298;48.792;9.154;2022-10-30T00:20:06;15.10;99.90
25342;DHT22;13298;48.792;9.154;2022-10-30T00:22:34;15.00;99.90
25342;DHT22;13298;48.792;9.154;2022-10-30T00:25:01;15.10;99.90
25342;DHT22;13298;48.792;9.154;2022-10-30T00:27:28;15.00;99.90
25342;DHT22;13298;48.792;9.154;2022-10-30T00:29:53;15.00;99.90
25342;DHT22;13298;48.792;9.154;2022-10-30T00:32:19;15.00;99.90
25342;DHT22;13298;48.792;9.154;2022-10-30T00:34:45;15.00;99.90
25342;DHT22;13298;48.792;9.154;2022-10-30T00:37:10;15.00;99.90
25342;DHT22;13298;48.792;9.154;2022-10-30T00:39:36;15.00;99.90
25342;DHT22;13298;48.792;9.154;2022-10-30T00:42:02;15.00;99.90
25342;DHT22;13298;48.792;9.154;2022-10-30T00:45:00;14.90;99.90
25342;DHT22;13298;48.792;9.154;2022-10-30T00:47:27;14.90;99.90
25342;DHT22;13298;48.792;9.154;2022-10-30T00:50:09;14.90;99.90
25342;DHT22;13298;48.792;9.154;2022-10-30T00:52:58;15.00;99.90
25342;DHT22;13298;48.792;9.154;2022-10-30T00:55:41;15.00;99.90
25342;DHT22;13298;48.792;9.154;2022-10-30T00:58:13;15.00;99.90
25342;DHT22;13298;48.792;9.154;2022-10-30T01:00:45;15.00;99.90
25342;DHT22;13298;48.792;9.154;2022-10-30T01:03:14;15.00;99.90
25342;DHT22;13298;48.792;9.154;2022-10-30T01:05:41;15.00;99.90
25342;DHT22;13298;48.792;9.154;2022-10-30T01:08:10;15.00;99.90
25342;DHT22;13298;48.792;9.154;2022-10-30T01:10:37;15.00;99.90
25342;DHT22;13298;48.792;9.154;2022-10-30T01:13:03;15.00;99.90
25342;DHT22;13298;48.792;9.154;2022-10-30T01:15:35;15.10;99.90
25342;DHT22;13298;48.792;9.154;2022-10-30T01:21:13;15.00;99.90
25342;DHT22;13298;48.792;9.154;2022-10-30T01:24:04;14.90;99.90
25342;DHT22;13298;48.792;9.154;2022-10-30T01:38:35;14.40;99.90
25342;DHT22;13298;48.792;9.154;2022-10-30T01:41:04;14.20;99.90
25342;DHT22;13298;48.792;9.154;2022-10-30T01:43:31;14.20;99.90
25342;DHT22;13298;48.792;9.154;2022-10-30T01:46:25;14.20;99.90
25342;DHT22;13298;48.792;9.154;2022-10-30T01:52:08;14.20;99.90
25342;DHT22;13298;48.792;9.154;2022-10-30T01:57:16;14.20;99.90
25342;DHT22;13298;48.792;9.154;2022-10-30T02:00:05;14.20;99.90
25342;DHT22;13298;48.792;9.154;2022-10-30T02:02:33;14.20;99.90
25342;DHT22;13298;48.792;9.154;2022-10-30T02:04:59;14.20;99.90
25342;DHT22;13298;48.792;9.154;2022-10-30T02:07:26;14.20;99.90
25342;DHT22;13298;48.792;9.154;2022-10-30T02:09:53;14.20;99.90
25342;DHT22;13298;48.792;9.154;2022-10-30T02:12:20;14.20;99.90
25342;DHT22;13298;48.792;9.154;2022-10-30T02:14:50;14.20;99.90
25342;DHT22;13298;48.792;9.154;2022-10-30T02:17:18;14.30;99.90
25342;DHT22;13298;48.792;9.154;2022-10-30T02:19:44;14.30;99.90
25342;DHT22;13298;48.792;9.154;2022-10-30T02:22:10;14.30;99.90
25342;DHT22;13298;48.792;9.154;2022-10-30T02:24:36;14.20;99.90
25342;DHT22;13298;48.792;9.154;2022-10-30T02:27:03;14.30;99.90
25342;DHT22;13298;48.792;9.154;2022-10-30T02:29:29;14.20;99.90
25342;DHT22;13298;48.792;9.154;2022-10-30T02:31:54;14.20;99.90
25342;DHT22;13298;48.792;9.154;2022-10-30T02:34:20;14.20;99.90
25342;DHT22;13298;48.792;9.154;2022-10-30T02:36:46;14.20;99.90
25342;DHT22;13298;48.792;9.154;2022-10-30T02:39:12;14.10;99.90
25342;DHT22;13298;48.792;9.154;2022-10-30T02:41:38;14.10;99.90
25342;DHT22;13298;48.792;9.154;2022-10-30T02:44:04;14.10;99.90
25342;DHT22;13298;48.792;9.154;2022-10-30T02:46:31;14.00;99.90
25342;DHT22;13298;48.792;9.154;2022-10-30T02:48:57;13.90;99.90
25342;DHT22;13298;48.792;9.154;2022-10-30T02:51:22;13.90;99.90
25342;DHT22;13298;48.792;9.154;2022-10-30T02:53:48;13.80;99.90
25342;DHT22;13298;48.792;9.154;2022-10-30T02:56:14;13.80;99.90
25342;DHT22;13298;48.792;9.154;2022-10-30T02:58:41;13.70;99.90
25342;DHT22;13298;48.792;9.154;2022-10-30T03:01:12;13.70;99.90
25342;DHT22;13298;48.792;9.154;2022-10-30T03:03:40;13.70;99.90
25342;DHT22;13298;48.792;9.154;2022-10-30T03:06:08;13.70;99.90
25342;DHT22;13298;48.792;9.154;2022-10-30T03:08:35;13.70;99.90
25342;DHT22;13298;48.792;9.154;2022-10-30T03:11:04;13.60;99.90
25342;DHT22;13298;48.792;9.154;2022-10-30T03:13:32;13.60;99.90
25342;DHT22;13298;48.792;9.154;2022-10-30T03:16:03;13.60;99.90
25342;DHT22;13298;48.792;9.154;2022-10-30T03:18:31;13.60;99.90
25342;DHT22;13298;48.792;9.154;2022-10-30T03:20:59;13.50;99.90
25342;DHT22;13298;48.792;9.154;2022-10-30T03:23:26;13.50;99.90
25342;DHT22;13298;48.792;9.154;2022-10-30T03:25:56;13.50;99.90
25342;DHT22;13298;48.792;9.154;2022-10-30T03:28:25;13.50;99.90
25342;DHT22;13298;48.792;9.154;2022-10-30T03:30:58;13.50;99.90
25342;DHT22;13298;48.792;9.154;2022-10-30T03:33:34;13.40;99.90
25342;DHT22;13298;48.792;9.154;2022-10-30T03:36:02;13.40;99.90
25342;DHT22;13298;48.792;9.154;2022-10-30T03:38:28;13.40;99.90
25342;DHT22;13298;48.792;9.154;2022-10-30T03:40:54;13.40;99.90
25342;DHT22;13298;48.792;9.154;2022-10-30T03:43:20;13.40;99.90
25342;DHT22;13298;48.792;9.154;2022-10-30T03:45:48;13.40;99.90
25342;DHT22;13298;48.792;9.154;2022-10-30T03:48:16;13.30;99.90
25342;DHT22;13298;48.792;9.154;2022-10-30T03:50:43;13.30;99.90
25342;DHT22;13298;48.792;9.154;2022-10-30T03:53:09;13.30;99.90
25342;DHT22;13298;48.792;9.154;2022-10-30T03:55:35;13.30;99.90
25342;DHT22;13298;48.792;9.154;2022-10-30T03:58:00;13.30;99.90
25342;DHT22;13298;48.792;9.154;2022-10-30T04:00:26;13.20;99.90
25342;DHT22;13298;48.792;9.154;2022-10-30T04:02:52;13.20;99.90
25342;DHT22;13298;48.792;9.154;2022-10-30T04:05:20;13.20;99.90
25342;DHT22;13298;48.792;9.154;2022-10-30T04:07:47;13.20;99.90
25342;DHT22;13298;48.792;9.154;2022-10-30T04:10:14;13.20;99.90
25342;DHT22;13298;48.792;9.154;2022-10-30T04:12:40;13.20;99.90
25342;DHT22;13298;48.792;9.154;2022-10-30T04:15:07;13.20;99.90
25342;DHT22;13298;48.792;9.154;2022-10-30T04:17:33;13.20;99.90
25342;DHT22;13298;48.792;9.154;2022-10-30T04:19:59;13.20;99.90
25342;DHT22;13298;48.792;9.154;2022-10-30T04:22:25;13.10;99.90
25342;DHT22;13298;48.792;9.154;2022-10-30T04:24:51;13.10;99.90
25342;DHT22;13298;48.792;9.154;2022-10-30T04:27:18;13.10;99.90
25342;DHT22;13298;48.792;9.154;2022-10-30T04:29:45;13.00;99.90
25342;DHT22;13298;48.792;9.154;2022-10-30T04:32:11;13.00;99.90
25342;DHT22;13298;48.792;9.154;2022-10-30T04:34:38;13.00;99.90
25342;DHT22;13298;48.792;9.154;2022-10-30T04:37:05;13.00;99.90
25342;DHT22;13298;48.792;9.154;2022-10-30T04:39:31;13.00;99.90
25342;DHT22;13298;48.792;9.154;2022-10-30T04:41:57;13.00;99.90
25342;DHT22;13298;48.792;9.154;2022-10-30T04:44:22;13.00;99.90
25342;DHT22;13298;48.792;9.154;2022-10-30T04:46:48;13.00;99.90
25342;DHT22;13298;48.792;9.154;2022-10-30T04:49:14;13.00;99.90
25342;DHT22;13298;48.792;9.154;2022-10-30T04:51:39;13.00;99.90
25342;DHT22;13298;48.792;9.154;2022-10-30T04:54:05;12.90;99.90
25342;DHT22;13298;48.792;9.154;2022-10-30T04:56:31;13.00;99.90
25342;DHT22;13298;48.792;9.154;2022-10-30T04:58:59;12.90;99.90
25342;DHT22;13298;48.792;9.154;2022-10-30T05:01:25;12.90;99.90
25342;DHT22;13298;48.792;9.154;2022-10-30T05:03:51;12.90;99.90
25342;DHT22;13298;48.792;9.154;2022-10-30T05:06:25;12.90;99.90
25342;DHT22;13298;48.792;9.154;2022-10-30T05:08:52;12.90;99.90
25342;DHT22;13298;48.792;9.154;2022-10-30T05:11:20;12.80;99.90
25342;DHT22;13298;48.792;9.154;2022-10-30T05:13:45;12.80;99.90
25342;DHT22;13298;48.792;9.154;2022-10-30T05:16:11;12.80;99.90
25342;DHT22;13298;48.792;9.154;2022-10-30T05:18:37;12.80;99.90
25342;DHT22;13298;48.792;9.154;2022-10-30T05:21:03;12.80;99.90
25342;DHT22;13298;48.792;9.154;2022-10-30T05:23:28;12.80;99.90
25342;DHT22;13298;48.792;9.154;2022-10-30T05:25:54;12.80;99.90
25342;DHT22;13298;48.792;9.154;2022-10-30T05:28:20;12.80;99.90
25342;DHT22;13298;48.792;9.154;2022-10-30T05:30:45;12.80;99.90
25342;DHT22;13298;48.792;9.154;2022-10-30T05:33:11;12.80;99.90
25342;DHT22;13298;48.792;9.154;2022-10-30T05:35:40;12.80;99.90
25342;DHT22;13298;48.792;9.154;2022-10-30T05:38:06;12.80;99.90
25342;DHT22;13298;48.792;9.154;2022-10-30T05:40:32;12.80;99.90
25342;DHT22;13298;48.792;9.154;2022-10-30T05:42:58;12.80;99.90
25342;DHT22;13298;48.792;9.154;2022-10-30T05:45:24;12.80;99.90
25342;DHT22;13298;48.792;9.154;2022-10-30T05:47:58;12.80;99.90
25342;DHT22;13298;48.792;9.154;2022-10-30T05:50:26;12.80;99.90
25342;DHT22;13298;48.792;9.154;2022-10-30T05:52:59;12.70;99.90
25342;DHT22;13298;48.792;9.154;2022-10-30T05:55:27;12.80;99.90
25342;DHT22;13298;48.792;9.154;2022-10-30T05:58:00;12.70;99.90
25342;DHT22;13298;48.792;9.154;2022-10-30T06:00:28;12.70;99.90
25342;DHT22;13298;48.792;9.154;2022-10-30T06:03:03;12.70;99.90
25342;DHT22;13298;48.792;9.154;2022-10-30T06:05:31;12.70;99.90
25342;DHT22;13298;48.792;9.154;2022-10-30T06:07:59;12.70;99.90
25342;DHT22;13298;48.792;9.154;2022-10-30T06:10:25;12.60;99.90
25342;DHT22;13298;48.792;9.154;2022-10-30T06:13:03;12.70;99.90
25342;DHT22;13298;48.792;9.154;2022-10-30T06:15:30;12.60;99.90
25342;DHT22;13298;48.792;9.154;2022-10-30T06:17:56;12.60;99.90
25342;DHT22;13298;48.792;9.154;2022-10-30T06:20:24;12.60;99.90
25342;DHT22;13298;48.792;9.154;2022-10-30T06:23:03;12.60;99.90
25342;DHT22;13298;48.792;9.154;2022-10-30T06:25:31;12.60;99.90
25342;DHT22;13298;48.792;9.154;2022-10-30T06:27:58;12.60;99.90
25342;DHT22;13298;48.792;9.154;2022-10-30T06:30:25;12.60;99.90
25342;DHT22;13298;48.792;9.154;2022-10-30T06:33:02;12.70;99.90
25342;DHT22;13298;48.792;9.154;2022-10-30T06:35:29;12.70;99.90
25342;DHT22;13298;48.792;9.154;2022-10-30T06:37:55;12.80;99.90
25342;DHT22;13298;48.792;9.154;2022-10-30T06:40:24;12.80;99.90
25342;DHT22;13298;48.792;9.154;2022-10-30T06:42:52;12.80;99.90
25342;DHT22;13298;48.792;9.154;2022-10-30T06:45:19;12.90;99.90
25342;DHT22;13298;48.792;9.154;2022-10-30T06:47:46;12.90;99.90
25342;DHT22;13298;48.792;9.154;2022-10-30T06:50:15;13.00;99.90
25342;DHT22;13298;48.792;9.154;2022-10-30T06:52:42;13.00;99.90
25342;DHT22;13298;48.792;9.154;2022-10-30T06:55:09;13.10;99.90
25342;DHT22;13298;48.792;9.154;2022-10-30T06:57:35;13.10;99.90
25342;DHT22;13298;48.792;9.154;2022-10-30T07:00:02;13.20;99.90
25342;DHT22;13298;48.792;9.154;2022-10-30T07:02:28;13.30;99.90
25342;DHT22;13298;48.792;9.154;2022-10-30T07:04:54;13.30;99.90
25342;DHT22;13298;48.792;9.154;2022-10-30T07:07:20;13.30;99.90
25342;DHT22;13298;48.792;9.154;2022-10-30T07:09:45;13.40;99.90
25342;DHT22;13298;48.792;9.154;2022-10-30T07:12:11;13.50;99.90
25342;DHT22;13298;48.792;9.154;2022-10-30T07:14:37;13.50;99.90
25342;DHT22;13298;48.792;9.154;2022-10-30T07:17:03;13.50;99.90
25342;DHT22;13298;48.792;9.154;2022-10-30T07:19:29;13.50;99.90
25342;DHT22;13298;48.792;9.154;2022-10-30T07:21:55;13.60;99.90
25342;DHT22;13298;48.792;9.154;2022-10-30T07:24:20;13.60;99.90
25342;DHT22;13298;48.792;9.154;2022-10-30T07:26:46;13.70;99.90
25342;DHT22;13298;48.792;9.154;2022-10-30T07:29:12;13.70;99.90
25342;DHT22;13298;48.792;9.154;2022-10-30T07:31:37;13.80;99.90
25342;DHT22;13298;48.792;9.154;2022-10-30T07:34:03;13.90;99.90
25342;DHT22;13298;48.792;9.154;2022-10-30T07:36:29;13.90;99.90
25342;DHT22;13298;48.792;9.154;2022-10-30T07:38:54;13.90;99.90
25342;DHT22;13298;48.792;9.154;2022-10-30T07:41:20;14.00;99.90
25342;DHT22;13298;48.792;9.154;2022-10-30T07:43:46;14.10;99.90
25342;DHT22;13298;48.792;9.154;2022-10-30T07:46:13;14.10;99.90
25342;DHT22;13298;48.792;9.154;2022-10-30T07:48:39;14.20;99.90
25342;DHT22;13298;48.792;9.154;2022-10-30T07:51:05;14.20;99.90
25342;DHT22;13298;48.792;9.154;2022-10-30T07:53:31;14.30;99.90
25342;DHT22;13298;48.792;9.154;2022-10-30T07:55:57;14.40;99.90
25342;DHT22;13298;48.792;9.154;2022-10-30T07:58:23;14.50;99.90
25342;DHT22;13298;48.792;9.154;2022-10-30T08:00:48;14.50;99.90
25342;DHT22;13298;48.792;9.154;2022-10-30T08:03:14;14.60;99.90
25342;DHT22;13298;48.792;9.154;2022-10-30T08:05:40;14.70;99.90
25342;DHT22;13298;48.792;9.154;2022-10-30T08:08:07;14.80;99.90
25342;DHT22;13298;48.792;9.154;2022-10-30T08:10:34;14.80;99.90
25342;DHT22;13298;48.792;9.154;2022-10-30T08:13:00;14.90;99.90
25342;DHT22;13298;48.792;9.154;2022-10-30T08:15:26;15.00;99.90
25342;DHT22;13298;48.792;9.154;2022-10-30T08:17:52;15.10;99.90
25342;DHT22;13298;48.792;9.154;2022-10-30T08:20:19;15.10;99.90
25342;DHT22;13298;48.792;9.154;2022-10-30T08:25:14;15.20;99.90
25342;DHT22;13298;48.792;9.154;2022-10-30T08:27:53;15.30;99.90
25342;DHT22;13298;48.792;9.154;2022-10-30T08:30:24;15.30;99.90
25342;DHT22;13298;48.792;9.154;2022-10-30T08:32:51;15.40;99.90
25342;DHT22;13298;48.792;9.154;2022-10-30T08:35:21;15.40;99.90
25342;DHT22;13298;48.792;9.154;2022-10-30T08:37:46;15.40;99.90
25342;DHT22;13298;48.792;9.154;2022-10-30T08:40:13;15.50;99.90
25342;DHT22;13298;48.792;9.154;2022-10-30T08:42:38;15.50;99.90
25342;DHT22;13298;48.792;9.154;2022-10-30T08:45:05;15.60;99.90
25342;DHT22;13298;48.792;9.154;2022-10-30T08:47:32;15.60;99.90
25342;DHT22;13298;48.792;9.154;2022-10-30T08:49:58;15.70;99.90
25342;DHT22;13298;48.792;9.154;2022-10-30T08:52:24;15.80;99.90
25342;DHT22;13298;48.792;9.154;2022-10-30T08:54:49;15.80;99.90
25342;DHT22;13298;48.792;9.154;2022-10-30T08:57:15;15.90;99.90
25342;DHT22;13298;48.792;9.154;2022-10-30T08:59:41;15.90;99.90
25342;DHT22;13298;48.792;9.154;2022-10-30T09:02:07;15.90;99.90
25342;DHT22;13298;48.792;9.154;2022-10-30T09:04:33;16.00;99.90
25342;DHT22;13298;48.792;9.154;2022-10-30T09:07:00;16.10;99.90
25342;DHT22;13298;48.792;9.154;2022-10-30T09:09:26;16.20;99.90
25342;DHT22;13298;48.792;9.154;2022-10-30T09:11:51;16.20;99.90
25342;DHT22;13298;48.792;9.154;2022-10-30T09:14:17;16.30;99.90
25342;DHT22;13298;48.792;9.154;2022-10-30T09:16:43;16.30;99.90
25342;DHT22;13298;48.792;9.154;2022-10-30T09:19:09;16.40;99.90
25342;DHT22;13298;48.792;9.154;2022-10-30T09:21:34;16.50;99.90
25342;DHT22;13298;48.792;9.154;2022-10-30T09:24:00;16.60;99.90
25342;DHT22;13298;48.792;9.154;2022-10-30T09:26:26;16.70;99.90
25342;DHT22;13298;48.792;9.154;2022-10-30T09:28:51;16.70;99.90
25342;DHT22;13298;48.792;9.154;2022-10-30T09:31:17;16.90;99.90
25342;DHT22;13298;48.792;9.154;2022-10-30T09:33:43;17.00;99.90
25342;DHT22;13298;48.792;9.154;2022-10-30T09:36:09;17.00;99.90
25342;DHT22;13298;48.792;9.154;2022-10-30T09:38:34;17.10;99.90
25342;DHT22;13298;48.792;9.154;2022-10-30T09:41:37;17.20;99.90
25342;DHT22;13298;48.792;9.154;2022-10-30T09:47:18;17.30;99.90
25342;DHT22;13298;48.792;9.154;2022-10-30T09:56:30;17.50;99.90
25342;DHT22;13298;48.792;9.154;2022-10-30T10:05:31;17.70;99.90
25342;DHT22;13298;48.792;9.154;2022-10-30T10:08:08;17.80;99.90
25342;DHT22;13298;48.792;9.154;2022-10-30T10:10:45;17.90;99.90
25342;DHT22;13298;48.792;9.154;2022-10-30T10:13:38;18.00;99.90
25342;DHT22;13298;48.792;9.154;2022-10-30T10:18:59;18.10;99.90
25342;DHT22;13298;48.792;9.154;2022-10-30T10:21:35;18.10;99.90
25342;DHT22;13298;48.792;9.154;2022-10-30T10:24:23;18.10;99.90
25342;DHT22;13298;48.792;9.154;2022-10-30T10:27:08;18.20;99.90
25342;DHT22;13298;48.792;9.154;2022-10-30T10:30:14;18.20;99.90
25342;DHT22;13298;48.792;9.154;2022-10-30T10:33:24;18.20;99.90
25342;DHT22;13298;48.792;9.154;2022-10-30T10:35:54;18.30;99.90
25342;DHT22;13298;48.792;9.154;2022-10-30T10:38:35;18.40;99.90
25342;DHT22;13298;48.792;9.154;2022-10-30T10:41:24;18.40;99.90
25342;DHT22;13298;48.792;9.154;2022-10-30T10:47:53;18.50;99.90
25342;DHT22;13298;48.792;9.154;2022-10-30T10:50:47;18.60;99.90
25342;DHT22;13298;48.792;9.154;2022-10-30T10:56:03;18.70;99.90
25342;DHT22;13298;48.792;9.154;2022-10-30T10:58:33;18.80;99.90
25342;DHT22;13298;48.792;9.154;2022-10-30T11:01:05;18.90;99.90
25342;DHT22;13298;48.792;9.154;2022-10-30T11:03:43;19.00;99.90
25342;DHT22;13298;48.792;9.154;2022-10-30T11:06:21;19.10;99.90
25342;DHT22;13298;48.792;9.154;2022-10-30T11:08:52;19.10;99.90
25342;DHT22;13298;48.792;9.154;2022-10-30T11:11:26;19.20;99.90
25342;DHT22;13298;48.792;9.154;2022-10-30T11:13:51;19.20;99.90
25342;DHT22;13298;48.792;9.154;2022-10-30T11:19:00;19.40;99.90
25342;DHT22;13298;48.792;9.154;2022-10-30T11:21:30;19.40;99.90
25342;DHT22;13298;48.792;9.154;2022-10-30T11:23:59;19.40;99.90
25342;DHT22;13298;48.792;9.154;2022-10-30T11:26:27;19.40;99.90
25342;DHT22;13298;48.792;9.154;2022-10-30T11:29:01;19.50;99.90
25342;DHT22;13298;48.792;9.154;2022-10-30T11:31:37;19.50;99.90
25342;DHT22;13298;48.792;9.154;2022-10-30T11:34:19;19.60;99.90
25342;DHT22;13298;48.792;9.154;2022-10-30T11:36:51;19.70;99.90
25342;DHT22;13298;48.792;9.154;2022-10-30T11:39:25;19.70;99.90
25342;DHT22;13298;48.792;9.154;2022-10-30T11:47:11;19.80;99.90
25342;DHT22;13298;48.792;9.154;2022-10-30T11:49:48;19.80;99.90
25342;DHT22;13298;48.792;9.154;2022-10-30T11:52:19;19.80;99.90
25342;DHT22;13298;48.792;9.154;2022-10-30T11:54:49;19.80;99.90
25342;DHT22;13298;48.792;9.154;2022-10-30T11:57:21;19.80;99.90
25342;DHT22;13298;48.792;9.154;2022-10-30T11:59:49;19.80;99.90
25342;DHT22;13298;48.792;9.154;2022-10-30T12:02:26;19.80;99.90
25342;DHT22;13298;48.792;9.154;2022-10-30T12:04:54;19.80;99.90
25342;DHT22;13298;48.792;9.154;2022-10-30T12:07:29;19.80;99.90
25342;DHT22;13298;48.792;9.154;2022-10-30T12:09:56;19.80;99.90
25342;DHT22;13298;48.792;9.154;2022-10-30T12:12:31;19.90;99.90
25342;DHT22;13298;48.792;9.154;2022-10-30T12:15:26;19.90;99.90
25342;DHT22;13298;48.792;9.154;2022-10-30T12:18:03;19.90;99.90
25342;DHT22;13298;48.792;9.154;2022-10-30T12:20:31;20.00;99.90
25342;DHT22;13298;48.792;9.154;2022-10-30T12:22:57;20.00;99.90
25342;DHT22;13298;48.792;9.154;2022-10-30T12:25:34;20.10;99.90
25342;DHT22;13298;48.792;9.154;2022-10-30T12:28:13;20.10;99.90
25342;DHT22;13298;48.792;9.154;2022-10-30T12:30:47;20.20;99.90
25342;DHT22;13298;48.792;9.154;2022-10-30T12:33:24;20.30;99.90
25342;DHT22;13298;48.792;9.154;2022-10-30T12:36:00;20.30;99.90
25342;DHT22;13298;48.792;9.154;2022-10-30T12:38:32;20.40;99.90
25342;DHT22;13298;48.792;9.154;2022-10-30T12:41:30;20.50;99.90
25342;DHT22;13298;48.792;9.154;2022-10-30T12:44:18;20.50;99.90
25342;DHT22;13298;48.792;9.154;2022-10-30T12:46:58;20.60;99.90
25342;DHT22;13298;48.792;9.154;2022-10-30T12:52:30;20.70;99.90
25342;DHT22;13298;48.792;9.154;2022-10-30T12:58:08;20.80;99.90
25342;DHT22;13298;48.792;9.154;2022-10-30T13:00:48;20.70;99.90
25342;DHT22;13298;48.792;9.154;2022-10-30T13:03:45;20.80;99.90
25342;DHT22;13298;48.792;9.154;2022-10-30T13:06:24;20.80;99.90
25342;DHT22;13298;48.792;9.154;2022-10-30T13:12:09;20.80;99.90
25342;DHT22;13298;48.792;9.154;2022-10-30T13:14:41;20.80;99.90
25342;DHT22;13298;48.792;9.154;2022-10-30T13:17:13;20.80;99.90
25342;DHT22;13298;48.792;9.154;2022-10-30T13:19:41;20.80;99.90
25342;DHT22;13298;48.792;9.154;2022-10-30T13:22:30;20.80;99.90
25342;DHT22;13298;48.792;9.154;2022-10-30T13:27:54;20.80;99.90
25342;DHT22;13298;48.792;9.154;2022-10-30T13:30:27;20.80;99.90
25342;DHT22;13298;48.792;9.154;2022-10-30T13:35:54;20.70;99.90
25342;DHT22;13298;48.792;9.154;2022-10-30T13:41:34;20.70;99.90
25342;DHT22;13298;48.792;9.154;2022-10-30T13:45:02;20.70;99.90
25342;DHT22;13298;48.792;9.154;2022-10-30T13:53:28;20.80;99.90
25342;DHT22;13298;48.792;9.154;2022-10-30T13:55:57;20.90;99.90
25342;DHT22;13298;48.792;9.154;2022-10-30T13:58:36;20.90;99.90
25342;DHT22;13298;48.792;9.154;2022-10-30T14:04:06;20.80;99.90
25342;DHT22;13298;48.792;9.154;2022-10-30T14:10:19;20.60;99.90
25342;DHT22;13298;48.792;9.154;2022-10-30T14:25:37;20.10;99.90
25342;DHT22;13298;48.792;9.154;2022-10-30T14:28:03;20.00;99.90
25342;DHT22;13298;48.792;9.154;2022-10-30T14:30:32;19.90;99.90
25342;DHT22;13298;48.792;9.154;2022-10-30T14:32:58;19.90;99.90
25342;DHT22;13298;48.792;9.154;2022-10-30T14:35:36;19.80;99.90
25342;DHT22;13298;48.792;9.154;2022-10-30T14:43:39;19.80;99.90
25342;DHT22;13298;48.792;9.154;2022-10-30T14:46:24;19.70;99.90
25342;DHT22;13298;48.792;9.154;2022-10-30T14:52:14;19.60;99.90
25342;DHT22;13298;48.792;9.154;2022-10-30T14:54:56;19.50;99.90
25342;DHT22;13298;48.792;9.154;2022-10-30T15:00:39;19.40;99.90
25342;DHT22;13298;48.792;9.154;2022-10-30T15:05:58;19.30;99.90
25342;DHT22;13298;48.792;9.154;2022-10-30T15:08:50;19.30;99.90
25342;DHT22;13298;48.792;9.154;2022-10-30T15:14:31;19.40;99.90
25342;DHT22;13298;48.792;9.154;2022-10-30T15:16:58;19.40;99.90
25342;DHT22;13298;48.792;9.154;2022-10-30T15:19:24;19.30;99.90
25342;DHT22;13298;48.792;9.154;2022-10-30T15:21:52;19.10;99.90
25342;DHT22;13298;48.792;9.154;2022-10-30T15:24:21;19.00;99.90
25342;DHT22;13298;48.792;9.154;2022-10-30T15:26:54;19.00;99.90
25342;DHT22;13298;48.792;9.154;2022-10-30T15:29:28;18.90;99.90
25342;DHT22;13298;48.792;9.154;2022-10-30T15:35:01;18.80;99.90
25342;DHT22;13298;48.792;9.154;2022-10-30T15:37:29;18.70;99.90
25342;DHT22;13298;48.792;9.154;2022-10-30T15:40:17;18.60;99.90
25342;DHT22;13298;48.792;9.154;2022-10-30T15:42:45;18.50;99.90
25342;DHT22;13298;48.792;9.154;2022-10-30T15:45:18;18.50;99.90
25342;DHT22;13298;48.792;9.154;2022-10-30T15:51:01;18.30;99.90
25342;DHT22;13298;48.792;9.154;2022-10-30T15:53:49;18.20;99.90
25342;DHT22;13298;48.792;9.154;2022-10-30T15:56:17;18.10;99.90
25342;DHT22;13298;48.792;9.154;2022-10-30T15:58:51;18.00;99.90
25342;DHT22;13298;48.792;9.154;2022-10-30T16:01:35;18.00;99.90
25342;DHT22;13298;48.792;9.154;2022-10-30T16:04:14;17.90;99.90
25342;DHT22;13298;48.792;9.154;2022-10-30T16:06:57;17.80;99.90
25342;DHT22;13298;48.792;9.154;2022-10-30T16:09:26;17.70;99.90
25342;DHT22;13298;48.792;9.154;2022-10-30T16:11:55;17.60;99.90
25342;DHT22;13298;48.792;9.154;2022-10-30T16:14:30;17.60;99.90
25342;DHT22;13298;48.792;9.154;2022-10-30T16:16:59;17.60;99.90
25342;DHT22;13298;48.792;9.154;2022-10-30T16:19:27;17.50;99.90
25342;DHT22;13298;48.792;9.154;2022-10-30T16:21:55;17.50;99.90
25342;DHT22;13298;48.792;9.154;2022-10-30T16:24:30;17.50;99.90
25342;DHT22;13298;48.792;9.154;2022-10-30T16:27:14;17.40;99.90
25342;DHT22;13298;48.792;9.154;2022-10-30T16:29:46;17.30;99.90
25342;DHT22;13298;48.792;9.154;2022-10-30T16:32:15;17.20;99.90
25342;DHT22;13298;48.792;9.154;2022-10-30T16:34:43;17.10;99.90
25342;DHT22;13298;48.792;9.154;2022-10-30T16:37:17;17.10;99.90
25342;DHT22;13298;48.792;9.154;2022-10-30T16:39:44;17.10;99.90
25342;DHT22;13298;48.792;9.154;2022-10-30T16:42:21;17.10;99.90
25342;DHT22;13298;48.792;9.154;2022-10-30T16:44:48;17.00;99.90
25342;DHT22;13298;48.792;9.154;2022-10-30T16:49:46;17.10;99.90
25342;DHT22;13298;48.792;9.154;2022-10-30T16:52:14;17.00;99.90
25342;DHT22;13298;48.792;9.154;2022-10-30T16:54:46;17.00;99.90
25342;DHT22;13298;48.792;9.154;2022-10-30T16:57:19;16.90;99.90
25342;DHT22;13298;48.792;9.154;2022-10-30T16:59:48;17.00;99.90
25342;DHT22;13298;48.792;9.154;2022-10-30T17:02:21;16.90;99.90
25342;DHT22;13298;48.792;9.154;2022-10-30T17:04:54;16.90;99.90
25342;DHT22;13298;48.792;9.154;2022-10-30T17:07:26;16.80;99.90
25342;DHT22;13298;48.792;9.154;2022-10-30T17:09:54;16.80;99.90
25342;DHT22;13298;48.792;9.154;2022-10-30T17:12:23;16.70;99.90
25342;DHT22;13298;48.792;9.154;2022-10-30T17:15:13;16.60;99.90
25342;DHT22;13298;48.792;9.154;2022-10-30T17:17:42;16.60;99.90
25342;DHT22;13298;48.792;9.154;2022-10-30T17:22:46;16.50;99.90
25342;DHT22;13298;48.792;9.154;2022-10-30T17:25:17;16.40;99.90
25342;DHT22;13298;48.792;9.154;2022-10-30T17:28:03;16.40;99.90
25342;DHT22;13298;48.792;9.154;2022-10-30T17:33:22;16.30;99.90
25342;DHT22;13298;48.792;9.154;2022-10-30T17:36:02;16.30;99.90
25342;DHT22;13298;48.792;9.154;2022-10-30T17:38:29;16.30;99.90
25342;DHT22;13298;48.792;9.154;2022-10-30T17:40:54;16.30;99.90
25342;DHT22;13298;48.792;9.154;2022-10-30T17:43:24;16.30;99.90
25342;DHT22;13298;48.792;9.154;2022-10-30T17:45:53;16.20;99.90
25342;DHT22;13298;48.792;9.154;2022-10-30T17:48:21;16.20;99.90
25342;DHT22;13298;48.792;9.154;2022-10-30T17:50:49;16.10;99.90
25342;DHT22;13298;48.792;9.154;2022-10-30T17:53:18;16.10;99.90
25342;DHT22;13298;48.792;9.154;2022-10-30T17:55:48;16.10;99.90
25342;DHT22;13298;48.792;9.154;2022-10-30T17:58:17;16.20;99.90
25342;DHT22;13298;48.792;9.154;2022-10-30T18:00:43;16.20;99.90
25342;DHT22;13298;48.792;9.154;2022-10-30T18:03:09;16.20;99.90